Time;durP1;ratioP1;P1;durP2;ratioP2;P2;SDS_P1;SDS_P2;PMS_P1;PMS_P2;Temp;Humidity;BMP_temperature;BMP_pressure;BME280_temperature;BME280_humidity;BME280_pressure;Samples;Min_cycle;Max_cycle;Signal;HPM_P1;HPM_P2
2024/01/31 05:30:48;;;;;;;;;4.00;3.00;;;;;12.43;42.99;103034.78;5070652;27;45527;-74
2024/01/31 05:33:13;;;;;;;;;2.75;2.75;;;;;12.42;43.23;103043.75;5075768;28;45320;-76
2024/01/31 05:35:39;;;;;;;;;5.25;3.75;;;;;12.30;43.15;103017.97;5075650;28;45315;-75
2024/01/31 05:38:05;;;;;;;;;5.00;3.00;;;;;12.35;43.18;103036.72;5075598;28;45249;-74
2024/01/31 05:40:30;;;;;;;;;3.00;3.00;;;;;12.29;43.69;103024.28;5075676;28;46046;-74
2024/01/31 05:42:56;;;;;;;;;1.25;1.25;;;;;12.43;43.01;103037.47;5067340;28;45162;-74
2024/01/31 05:45:22;;;;;;;;;4.00;4.00;;;;;12.31;43.49;103027.84;5075610;28;45407;-74
2024/01/31 05:47:47;;;;;;;;;3.00;3.00;;;;;12.25;43.57;103019.84;5075310;28;45317;-73
2024/01/31 05:50:14;;;;;;;;;5.00;3.50;;;;;12.38;43.37;103031.31;5075220;28;45388;-75
2024/01/31 05:52:40;;;;;;;;;1.50;1.00;;;;;12.41;43.70;103033.94;5075093;28;45383;-75
2024/01/31 05:55:05;;;;;;;;;2.75;2.25;;;;;12.38;43.22;103031.31;5070482;28;45770;-75
2024/01/31 05:57:31;;;;;;;;;2.75;2.75;;;;;12.39;43.38;103041.16;5075321;28;45522;-75
2024/01/31 05:59:56;;;;;;;;;3.50;3.50;;;;;12.40;43.39;103032.16;5073545;28;46191;-73
2024/01/31 06:02:21;;;;;;;;;4.25;4.00;;;;;12.34;43.55;103018.78;5075060;28;45331;-74
2024/01/31 06:04:47;;;;;;;;;4.00;4.00;;;;;12.35;43.46;103012.50;5071396;28;53200;-75
2024/01/31 06:07:12;;;;;;;;;4.75;3.50;;;;;12.42;43.23;103017.75;5075394;28;45205;-74
2024/01/31 06:09:39;;;;;;;;;6.25;4.00;;;;;12.39;43.36;103015.13;5074461;28;45907;-74
2024/01/31 06:12:05;;;;;;;;;4.00;4.00;;;;;12.29;43.01;103005.44;5065130;28;45604;-76
2024/01/31 06:14:31;;;;;;;;;5.00;4.00;;;;;12.22;43.63;102993.03;5057281;28;45461;-76
2024/01/31 06:16:57;;;;;;;;;3.00;3.00;;;;;12.24;43.50;102999.28;5074532;28;45521;-76
2024/01/31 06:19:22;;;;;;;;;3.50;3.50;;;;;12.26;43.72;103005.47;5074706;28;46200;-76
2024/01/31 06:21:48;;;;;;;;;3.50;3.50;;;;;12.30;43.88;103011.72;5056791;28;45623;-75
2024/01/31 06:24:14;;;;;;;;;3.50;3.50;;;;;12.26;44.27;103010.88;5040041;28;45574;-78
2024/01/31 06:26:40;;;;;;;;;4.00;4.00;;;;;12.10;43.95;102977.97;5076854;28;45521;-77
2024/01/31 06:29:05;;;;;;;;;3.75;2.00;;;;;12.22;43.72;103002.88;5059369;28;47064;-78
2024/01/31 06:31:35;;;;;;;;;5.25;4.00;;;;;12.13;44.50;103004.81;5073681;27;45294;-78
2024/01/31 06:34:01;;;;;;;;;5.00;4.00;;;;;12.14;44.48;103003.03;5075081;28;45262;-76
2024/01/31 06:36:26;;;;;;;;;5.25;5.25;;;;;12.09;44.41;103002.19;5075040;28;45300;-76
2024/01/31 06:38:51;;;;;;;;;4.25;4.25;;;;;12.07;44.86;103014.78;5074982;28;55921;-77
2024/01/31 06:41:18;;;;;;;;;8.25;4.00;;;;;12.03;45.21;103010.34;5076263;28;50842;-76
2024/01/31 06:43:44;;;;;;;;;7.75;6.00;;;;;11.71;45.27;102949.91;5074741;28;45347;-77
2024/01/31 06:46:10;;;;;;;;;4.25;4.25;;;;;11.92;45.37;102996.19;5074191;28;45409;-78
2024/01/31 06:48:35;;;;;;;;;5.00;5.00;;;;;11.80;45.48;102983.84;5074593;28;47263;-77
2024/01/31 06:51:01;;;;;;;;;10.25;6.00;;;;;11.83;45.46;102999.00;5073141;28;45413;-77
2024/01/31 06:53:27;;;;;;;;;5.00;5.00;;;;;11.86;45.92;103012.41;5074112;28;45291;-78
2024/01/31 06:55:53;;;;;;;;;6.25;6.25;;;;;11.81;46.24;103001.75;5074296;28;45498;-79
2024/01/31 06:58:18;;;;;;;;;7.00;5.50;;;;;11.79;46.55;103003.56;5073540;28;45363;-77
2024/01/31 07:00:44;;;;;;;;;10.00;6.25;;;;;11.76;46.20;103008.97;5073726;28;45313;-77
2024/01/31 07:03:09;;;;;;;;;5.00;3.75;;;;;11.66;46.52;103000.13;5072224;28;45643;-79
2024/01/31 07:05:35;;;;;;;;;5.00;5.00;;;;;11.74;46.97;103018.81;5075840;27;45493;-82
2024/01/31 07:08:01;;;;;;;;;7.25;5.00;;;;;11.71;46.68;103033.22;5088126;27;46222;-88
2024/01/31 07:10:26;;;;;;;;;8.00;6.25;;;;;11.69;46.96;103032.34;5053520;28;45498;-78
2024/01/31 07:12:53;;;;;;;;;5.50;5.50;;;;;11.34;46.75;102965.66;5072816;28;45279;-79
2024/01/31 07:15:20;;;;;;;;;5.00;5.00;;;;;11.12;46.55;102928.41;5074401;28;45370;-82
2024/01/31 07:17:48;;;;;;;;;7.00;7.00;;;;;11.51;47.00;102994.97;5073407;28;45495;-81
2024/01/31 07:20:13;;;;;;;;;6.50;6.50;;;;;11.62;46.90;103022.59;5074855;28;45241;-81
2024/01/31 07:22:39;;;;;;;;;10.25;7.75;;;;;11.62;47.27;103027.97;5075312;28;45419;-80
2024/01/31 07:25:04;;;;;;;;;7.00;5.00;;;;;11.54;47.28;103013.75;5056623;28;45510;-80
2024/01/31 07:27:29;;;;;;;;;5.00;5.00;;;;;11.50;47.42;103022.75;5077230;28;45455;-79
2024/01/31 07:29:55;;;;;;;;;7.75;7.75;;;;;11.50;47.64;103017.38;5077993;28;45434;-81
2024/01/31 07:32:20;;;;;;;;;9.00;9.00;;;;;11.57;47.50;103045.06;5077252;27;52094;-81
2024/01/31 07:34:45;;;;;;;;;9.75;8.25;;;;;11.55;48.02;103044.19;5078447;28;45489;-79
2024/01/31 07:37:11;;;;;;;;;10.25;8.50;;;;;11.42;47.74;103029.13;5078374;28;45952;-79
2024/01/31 07:39:36;;;;;;;;;10.25;9.00;;;;;11.08;47.79;102966.91;5077516;28;57073;-80
2024/01/31 07:42:01;;;;;;;;;8.00;8.00;;;;;11.19;47.13;103003.47;5059093;28;48216;-79
2024/01/31 07:44:27;;;;;;;;;10.50;9.50;;;;;11.22;47.90;103029.41;5077516;28;45380;-81
2024/01/31 07:46:52;;;;;;;;;12.50;9.75;;;;;10.94;47.79;102983.19;5059311;28;53880;-80
2024/01/31 07:49:18;;;;;;;;;10.25;10.25;;;;;11.19;48.14;103016.00;5077667;28;45416;-81
2024/01/31 07:51:44;;;;;;;;;11.50;10.50;;;;;11.31;48.00;103037.34;5077343;28;45402;-81
2024/01/31 07:54:10;;;;;;;;;11.00;11.00;;;;;11.21;48.40;103020.44;5059281;28;45596;-81
2024/01/31 07:56:35;;;;;;;;;8.00;8.00;;;;;11.24;48.15;103038.28;5077038;28;46157;-80
2024/01/31 07:59:01;;;;;;;;;12.75;11.25;;;;;11.43;48.92;103061.34;5059040;28;45834;-81
2024/01/31 08:01:26;;;;;;;;;8.50;8.50;;;;;11.33;48.66;103022.06;5077065;28;45594;-81
2024/01/31 08:03:53;;;;;;;;;12.00;10.50;;;;;11.38;48.57;103017.53;5059953;27;45897;-80
2024/01/31 08:06:18;;;;;;;;;8.75;7.50;;;;;11.50;48.30;103030.81;5076035;27;47292;-79
2024/01/31 08:08:45;;;;;;;;;16.00;11.00;;;;;11.47;48.39;103019.22;5058944;28;45344;-81
2024/01/31 08:11:11;;;;;;;;;13.75;11.50;;;;;11.56;47.96;103033.44;5074280;28;45569;-84
2024/01/31 08:13:37;;;;;;;;;13.00;11.25;;;;;11.52;48.62;103029.00;5076622;28;45751;-82
2024/01/31 08:16:02;;;;;;;;;12.00;9.25;;;;;11.44;48.96;103012.09;5075840;28;46176;-83
2024/01/31 08:18:28;;;;;;;;;11.50;10.75;;;;;11.52;48.41;103022.72;5077015;28;45468;-82
2024/01/31 08:20:53;;;;;;;;;5.50;5.50;;;;;11.51;48.86;103024.53;5076542;28;45521;-81
2024/01/31 08:23:20;;;;;;;;;12.25;11.00;;;;;11.52;49.03;103022.72;5076054;28;46093;-82
2024/01/31 08:25:45;;;;;;;;;12.75;10.75;;;;;11.27;49.07;102979.19;5058288;28;46734;-83
2024/01/31 08:28:10;;;;;;;;;10.00;8.75;;;;;11.33;49.80;102989.84;5075885;28;45409;-83
2024/01/31 08:30:36;;;;;;;;;10.00;10.00;;;;;11.35;49.57;102994.28;5076220;28;45535;-83
2024/01/31 08:33:02;;;;;;;;;9.25;9.25;;;;;11.10;49.97;102952.56;5076214;27;45489;-82
2024/01/31 08:35:27;;;;;;;;;11.50;11.50;;;;;11.54;49.82;103018.22;5076272;28;46129;-83
2024/01/31 08:37:54;;;;;;;;;10.00;9.00;;;;;11.43;50.10;103004.03;5058306;28;45607;-84
2024/01/31 08:40:20;;;;;;;;;11.75;10.75;;;;;11.62;49.88;103035.13;5077535;28;45541;-83
2024/01/31 08:42:45;;;;;;;;;8.50;8.50;;;;;11.51;50.39;103031.69;5077337;28;54613;-83
2024/01/31 08:45:11;;;;;;;;;14.25;12.00;;;;;11.63;50.26;103044.97;5075108;28;45309;-78
2024/01/31 08:47:36;;;;;;;;;11.75;11.75;;;;;11.56;50.46;103035.22;5072625;27;46114;-77
2024/01/31 08:50:02;;;;;;;;;10.25;10.25;;;;;11.56;50.53;103027.16;5075712;28;45407;-79
2024/01/31 08:52:27;;;;;;;;;13.00;11.00;;;;;11.66;50.75;103039.53;5075025;28;45993;-79
2024/01/31 08:54:52;;;;;;;;;15.75;15.00;;;;;11.68;50.92;103037.72;5075318;28;45472;-81
2024/01/31 08:57:18;;;;;;;;;16.75;14.25;;;;;11.52;50.98;103011.97;5075244;28;45354;-79
2024/01/31 08:59:43;;;;;;;;;12.00;12.00;;;;;11.72;50.89;103042.16;5074989;28;45819;-78
2024/01/31 09:02:08;;;;;;;;;13.75;11.75;;;;;11.55;50.66;103015.53;5075267;28;45523;-79
2024/01/31 09:04:35;;;;;;;;;13.00;13.00;;;;;11.56;51.50;103020.00;5077323;27;45977;-80
2024/01/31 09:07:00;;;;;;;;;14.25;12.50;;;;;11.80;51.25;103061.78;5074469;28;45478;-79
2024/01/31 09:09:25;;;;;;;;;10.00;10.00;;;;;11.69;51.47;103045.78;5068993;27;45770;-76
2024/01/31 09:11:51;;;;;;;;;9.00;9.00;;;;;11.73;51.78;103044.84;5060647;28;45520;-77
2024/01/31 09:14:16;;;;;;;;;15.00;13.25;;;;;11.85;51.88;103042.88;5074663;28;46273;-78
2024/01/31 09:16:41;;;;;;;;;10.00;7.25;;;;;12.10;51.91;103077.44;5056986;28;45622;-77
2024/01/31 09:19:07;;;;;;;;;13.25;12.00;;;;;11.83;52.23;103012.44;5071572;27;45535;-77
2024/01/31 09:21:32;;;;;;;;;10.50;10.50;;;;;12.22;52.74;103059.38;5066606;28;45623;-77
2024/01/31 09:23:58;;;;;;;;;13.00;10.50;;;;;12.09;52.92;103031.75;5075482;28;48632;-76
2024/01/31 09:26:23;;;;;;;;;10.75;10.25;;;;;12.15;52.67;103026.31;5074823;28;45397;-76
2024/01/31 09:28:49;;;;;;;;;11.25;11.25;;;;;12.25;52.66;103033.28;5073911;28;45808;-78
2024/01/31 09:31:25;;;;;;;;;12.75;12.75;;;;;12.26;52.64;103037.75;5075197;28;45579;-76
2024/01/31 09:33:52;;;;;;;;;12.75;11.50;;;;;12.19;53.00;103022.63;5074815;28;45437;-76
2024/01/31 09:36:18;;;;;;;;;14.50;13.75;;;;;12.36;52.81;103044.78;5071553;27;45434;-78
2024/01/31 09:38:44;;;;;;;;;13.50;13.50;;;;;12.13;53.19;102999.44;5057069;28;45520;-78
2024/01/31 09:41:10;;;;;;;;;19.00;13.50;;;;;12.42;53.30;103043.75;5075025;28;45504;-77
2024/01/31 09:43:35;;;;;;;;;15.00;13.75;;;;;12.27;53.81;103025.19;5075594;28;45428;-78
2024/01/31 09:46:04;;;;;;;;;15.50;12.75;;;;;12.21;53.88;103006.50;5075419;28;45478;-77
2024/01/31 09:48:31;;;;;;;;;13.50;13.00;;;;;12.35;54.03;103032.22;5074373;28;45378;-77
2024/01/31 09:50:58;;;;;;;;;13.00;12.25;;;;;12.28;53.83;103003.66;5091040;27;46259;-78
2024/01/31 09:53:24;;;;;;;;;11.75;11.75;;;;;12.51;53.97;103022.97;5074834;28;46333;-78
2024/01/31 09:55:55;;;;;;;;;12.25;11.25;;;;;12.48;54.05;103017.66;5051533;28;45532;-78
2024/01/31 09:58:24;;;;;;;;;15.75;15.75;;;;;12.47;53.91;102993.47;5062667;28;45183;-77
2024/01/31 10:00:51;;;;;;;;;12.00;12.00;;;;;12.44;54.49;102986.34;5074772;28;45405;-77
2024/01/31 10:03:16;;;;;;;;;14.25;14.25;;;;;12.72;54.58;103019.03;5074763;28;45409;-75
2024/01/31 10:05:42;;;;;;;;;13.25;13.25;;;;;12.79;54.28;103020.69;5077014;27;45398;-77
2024/01/31 10:08:07;;;;;;;;;12.00;12.00;;;;;12.62;54.84;102995.00;5074517;28;45500;-77
2024/01/31 10:10:33;;;;;;;;;12.50;11.75;;;;;12.60;54.99;102994.13;5075067;28;45407;-76
2024/01/31 10:12:59;;;;;;;;;17.00;12.75;;;;;12.65;55.14;103009.28;5065400;27;45619;-77
2024/01/31 10:15:24;;;;;;;;;14.25;14.00;;;;;12.54;55.33;102995.13;5084945;27;45301;-79
2024/01/31 10:17:49;;;;;;;;;14.00;12.75;;;;;12.58;55.49;103004.06;5056556;28;45697;-78
2024/01/31 10:20:15;;;;;;;;;15.25;13.25;;;;;12.48;55.33;103003.31;5074979;28;45475;-79
2024/01/31 10:22:41;;;;;;;;;18.00;13.75;;;;;12.39;55.85;102998.09;5058732;28;46931;-78
2024/01/31 10:25:07;;;;;;;;;18.25;16.00;;;;;12.27;55.66;102971.41;5056614;28;45371;-80
2024/01/31 10:27:34;;;;;;;;;16.50;14.75;;;;;12.46;55.52;102989.00;5072309;27;45893;-79
2024/01/31 10:30:03;;;;;;;;;16.50;13.00;;;;;12.44;55.44;102966.63;5072947;28;45487;-77
2024/01/31 10:32:29;;;;;;;;;19.25;17.50;;;;;12.43;55.16;102941.50;5074186;28;45396;-79
2024/01/31 10:34:56;;;;;;;;;22.00;19.00;;;;;12.57;55.16;102953.84;5074057;28;45306;-78
2024/01/31 10:37:26;;;;;;;;;17.75;15.25;;;;;12.62;55.00;102962.69;5072746;28;45315;-77
2024/01/31 10:39:52;;;;;;;;;19.50;17.25;;;;;12.78;55.40;102974.94;5066561;28;45409;-77
2024/01/31 10:42:18;;;;;;;;;14.25;14.25;;;;;12.73;55.40;102961.59;5080622;27;45455;-78
2024/01/31 10:44:46;;;;;;;;;16.50;15.50;;;;;12.98;55.60;102998.78;5073836;28;45440;-78
2024/01/31 10:47:12;;;;;;;;;11.75;11.75;;;;;12.86;55.80;102981.06;5074263;28;45471;-80
2024/01/31 10:49:37;;;;;;;;;17.75;17.75;;;;;12.84;56.60;102991.00;5073910;28;45584;-79
2024/01/31 10:52:07;;;;;;;;;17.25;14.25;;;;;12.69;56.75;102964.34;5074317;28;52549;-78
2024/01/31 10:54:39;;;;;;;;;16.75;16.75;;;;;12.51;57.31;102944.94;5072891;28;45386;-79
2024/01/31 10:57:06;;;;;;;;;21.25;17.75;;;;;12.68;57.63;102986.78;5074180;28;45535;-78
2024/01/31 10:59:37;;;;;;;;;15.00;14.00;;;;;12.57;58.03;102970.88;5073628;28;45332;-77
2024/01/31 11:02:03;;;;;;;;;18.75;14.00;;;;;12.54;58.31;102983.47;5058586;28;47246;-77
2024/01/31 11:04:29;;;;;;;;;14.25;13.00;;;;;12.31;58.34;102947.13;5060443;28;46293;-77
2024/01/31 11:06:59;;;;;;;;;13.00;11.50;;;;;12.16;58.92;102935.78;5078145;28;45406;-77
2024/01/31 11:09:25;;;;;;;;;14.50;12.75;;;;;12.29;58.91;102962.41;5077328;28;45273;-79
2024/01/31 11:12:04;;;;;;;;;12.00;11.00;;;;;12.35;59.64;102986.50;5077530;28;46224;-78
2024/01/31 11:14:31;;;;;;;;;15.75;11.75;;;;;12.20;60.44;102985.88;5077319;28;45380;-79
2024/01/31 11:17:09;;;;;;;;;13.25;13.25;;;;;12.18;60.07;102985.91;5076134;28;45449;-79
2024/01/31 11:19:40;;;;;;;;;19.75;16.00;;;;;12.04;60.04;102967.31;5076162;28;45483;-78
2024/01/31 11:22:07;;;;;;;;;16.00;13.00;;;;;12.07;59.63;102948.47;5077543;28;45537;-80
2024/01/31 11:24:33;;;;;;;;;16.00;13.50;;;;;12.27;59.84;102984.84;5077316;28;45463;-75
2024/01/31 11:26:59;;;;;;;;;14.25;14.25;;;;;12.13;60.70;102968.97;5077320;28;45311;-76
2024/01/31 11:29:25;;;;;;;;;21.75;20.25;;;;;12.06;60.01;102957.44;5077343;28;45520;-76
2024/01/31 11:31:52;;;;;;;;;17.50;17.00;;;;;12.24;60.21;102972.38;5077970;28;45325;-79
2024/01/31 11:34:17;;;;;;;;;13.50;13.25;;;;;12.23;60.23;102961.63;5077728;28;45303;-79
2024/01/31 11:36:42;;;;;;;;;16.00;16.00;;;;;12.23;59.35;102938.31;5078100;28;45666;-80
2024/01/31 11:39:08;;;;;;;;;19.50;19.50;;;;;12.31;59.76;102960.59;5059581;28;47008;-82
2024/01/31 11:41:33;;;;;;;;;19.00;19.00;;;;;12.40;59.62;102952.34;5057995;28;48611;-82
2024/01/31 11:43:59;;;;;;;;;18.75;18.75;;;;;12.48;59.58;102968.34;5076044;28;45620;-81
2024/01/31 11:46:25;;;;;;;;;16.00;16.00;;;;;12.42;59.53;102946.91;5065328;27;45368;-81
2024/01/31 11:48:53;;;;;;;;;24.50;18.25;;;;;12.59;59.45;102978.94;5060891;28;46150;-79
2024/01/31 11:51:20;;;;;;;;;19.75;18.25;;;;;12.32;60.02;102973.13;5075420;28;46434;-77
2024/01/31 11:53:45;;;;;;;;;19.50;11.00;;;;;12.27;60.33;102980.38;5058093;28;45422;-81
2024/01/31 11:56:12;;;;;;;;;16.00;15.25;;;;;11.96;61.43;102977.31;5077741;27;45579;-81
2024/01/31 11:58:37;;;;;;;;;16.50;14.00;;;;;11.82;62.11;102973.97;5076804;28;45547;-85
2024/01/31 12:01:04;;;;;;;;;17.00;13.50;;;;;11.83;61.98;102956.00;5077652;28;46485;-83
2024/01/31 12:03:30;;;;;;;;;13.00;10.25;;;;;11.92;61.83;102964.81;5057514;28;45430;-80
2024/01/31 12:05:57;;;;;;;;;15.50;14.25;;;;;12.00;62.38;102996.94;5076297;27;45660;-77
2024/01/31 12:08:26;;;;;;;;;18.75;15.00;;;;;11.92;62.27;102980.06;5069462;28;45455;-78
2024/01/31 12:10:53;;;;;;;;;16.25;15.75;;;;;12.01;62.20;102985.28;5077116;28;46145;-73
2024/01/31 12:13:18;;;;;;;;;19.00;17.75;;;;;11.90;62.43;102989.97;5056087;28;45507;-77
2024/01/31 12:15:46;;;;;;;;;14.00;14.00;;;;;11.87;62.10;102971.19;5075377;28;46022;-76
2024/01/31 12:18:13;;;;;;;;;16.75;14.25;;;;;11.96;62.11;102989.88;5076114;28;45533;-74
2024/01/31 12:20:39;;;;;;;;;14.00;14.00;;;;;11.91;62.19;102989.06;5057755;28;47555;-76
2024/01/31 12:23:07;;;;;;;;;18.75;14.00;;;;;11.56;62.28;102915.22;5077423;28;45457;-83
2024/01/31 12:25:32;;;;;;;;;16.25;15.25;;;;;11.79;61.46;102946.25;5079395;28;44836;-79
2024/01/31 12:27:57;;;;;;;;;13.25;12.25;;;;;11.98;61.70;102958.47;5078322;28;45502;-78
2024/01/31 12:30:23;;;;;;;;;13.00;9.75;;;;;11.97;60.87;102957.59;5077762;28;45945;-80
2024/01/31 12:32:48;;;;;;;;;19.00;14.50;;;;;12.07;60.82;102959.22;5076860;28;45468;-79
2024/01/31 12:35:14;;;;;;;;;14.00;9.25;;;;;12.03;60.88;102945.84;5079200;28;45374;-80
2024/01/31 12:37:39;;;;;;;;;15.25;13.50;;;;;12.01;60.41;102945.84;5078409;28;45527;-76
2024/01/31 12:40:07;;;;;;;;;15.25;12.25;;;;;11.77;61.46;102940.88;5075515;28;47354;-77
2024/01/31 12:42:32;;;;;;;;;13.25;12.50;;;;;11.64;61.83;102929.44;5076942;28;45421;-80
2024/01/31 12:44:58;;;;;;;;;14.00;13.00;;;;;11.47;61.19;102884.94;5061659;28;45415;-79
2024/01/31 12:47:24;;;;;;;;;17.75;16.50;;;;;11.71;61.28;102920.34;5058275;28;47237;-77
2024/01/31 12:49:50;;;;;;;;;14.50;14.50;;;;;11.60;60.88;102892.75;5076814;28;45989;-78
2024/01/31 12:52:15;;;;;;;;;17.25;15.25;;;;;11.71;60.70;102925.72;5075980;28;45366;-78
2024/01/31 12:54:40;;;;;;;;;14.00;14.00;;;;;11.89;60.46;102931.75;5075723;28;45477;-77
2024/01/31 12:57:07;;;;;;;;;18.75;16.75;;;;;12.00;59.39;102919.00;5075980;28;45424;-78
2024/01/31 12:59:32;;;;;;;;;18.75;16.00;;;;;11.74;59.21;102853.13;5057809;28;46528;-80
2024/01/31 13:01:58;;;;;;;;;13.50;13.50;;;;;12.06;58.92;102909.03;5077337;28;45450;-81
2024/01/31 13:04:23;;;;;;;;;14.00;14.00;;;;;12.06;58.54;102878.59;5059754;28;45481;-78
2024/01/31 13:06:49;;;;;;;;;16.00;16.00;;;;;12.31;58.18;102914.88;5057512;28;46172;-76
2024/01/31 13:09:15;;;;;;;;;18.25;14.75;;;;;12.08;58.41;102909.88;5076023;28;46087;-76
2024/01/31 13:11:40;;;;;;;;;9.50;7.75;;;;;11.83;58.57;102878.06;5058043;28;45535;-78
2024/01/31 13:14:06;;;;;;;;;18.75;17.50;;;;;12.00;58.92;102894.78;5075569;28;45498;-81
2024/01/31 13:16:33;;;;;;;;;13.25;13.25;;;;;11.94;58.91;102871.59;5075521;28;45405;-79
2024/01/31 13:18:59;;;;;;;;;14.00;14.00;;;;;12.32;58.53;102891.53;5076118;28;45533;-78
2024/01/31 13:21:25;;;;;;;;;17.25;13.00;;;;;12.22;57.73;102830.78;5073232;27;45557;-78
2024/01/31 13:23:52;;;;;;;;;17.00;15.00;;;;;12.57;57.20;102860.56;5075003;28;45507;-77
2024/01/31 13:26:18;;;;;;;;;18.25;14.00;;;;;12.60;57.25;102862.28;5075261;28;45326;-77
2024/01/31 13:28:43;;;;;;;;;15.75;15.00;;;;;12.55;56.74;102845.34;5074872;28;46397;-78
2024/01/31 13:31:08;;;;;;;;;15.50;15.50;;;;;12.78;56.91;102878.03;5075159;28;45513;-77
2024/01/31 13:33:34;;;;;;;;;18.50;16.00;;;;;12.79;56.62;102886.09;5075234;28;46172;-76
2024/01/31 13:36:00;;;;;;;;;14.50;14.50;;;;;12.73;56.74;102867.38;5072169;27;45549;-77
2024/01/31 13:38:25;;;;;;;;;18.00;16.75;;;;;12.89;56.08;102895.75;5073366;28;45854;-77
2024/01/31 13:40:51;;;;;;;;;15.00;13.50;;;;;12.57;55.65;102832.75;5087995;27;45617;-77
2024/01/31 13:43:16;;;;;;;;;15.00;13.75;;;;;12.75;54.34;102870.06;5072590;28;45455;-79
2024/01/31 13:45:41;;;;;;;;;9.00;7.25;;;;;12.74;52.47;102879.94;5073426;28;45552;-77
2024/01/31 13:48:07;;;;;;;;;11.75;10.00;;;;;12.52;51.92;102843.59;5072646;28;45490;-77
2024/01/31 13:50:32;;;;;;;;;9.00;9.00;;;;;12.70;52.39;102880.00;5073037;28;45430;-77
2024/01/31 13:52:57;;;;;;;;;10.00;10.00;;;;;12.58;51.83;102864.13;5072330;27;45749;-78
2024/01/31 13:55:23;;;;;;;;;6.50;6.50;;;;;12.70;52.26;102880.00;5072976;28;45697;-78
2024/01/31 13:57:48;;;;;;;;;6.50;6.00;;;;;12.75;51.80;102878.13;5075217;27;46375;-77
2024/01/31 14:00:14;;;;;;;;;9.75;9.75;;;;;12.76;51.90;102885.28;5075275;28;45302;-78
2024/01/31 14:02:39;;;;;;;;;7.00;7.00;;;;;12.72;51.74;102871.00;5075431;28;45362;-78
2024/01/31 14:05:05;;;;;;;;;4.25;4.25;;;;;12.85;51.86;102882.38;5054508;28;45692;-81
2024/01/31 14:07:31;;;;;;;;;12.50;10.75;;;;;12.95;50.97;102881.25;5069853;27;46524;-75
2024/01/31 14:09:56;;;;;;;;;6.50;6.00;;;;;12.86;51.05;102884.16;5074698;28;45413;-80
2024/01/31 14:12:22;;;;;;;;;5.75;5.75;;;;;12.92;50.52;102865.19;5075218;28;45352;-79
2024/01/31 14:14:48;;;;;;;;;7.50;7.50;;;;;13.03;50.79;102864.94;5075797;28;45270;-78
2024/01/31 14:17:14;;;;;;;;;14.25;9.50;;;;;13.11;49.71;102873.72;5075092;28;46121;-76
2024/01/31 14:19:39;;;;;;;;;10.25;6.50;;;;;12.89;49.78;102815.00;5075494;28;45370;-79
2024/01/31 14:22:05;;;;;;;;;8.75;8.75;;;;;12.92;49.93;102829.31;5074715;28;45373;-81
2024/01/31 14:24:30;;;;;;;;;7.75;7.75;;;;;13.15;50.09;102849.44;5074186;28;45429;-79
2024/01/31 14:26:56;;;;;;;;;7.25;7.25;;;;;13.21;50.25;102865.44;5074692;28;46343;-83
2024/01/31 14:29:21;;;;;;;;;9.50;8.00;;;;;13.41;49.52;102861.41;5074109;28;45423;-81
2024/01/31 14:31:47;;;;;;;;;7.00;7.00;;;;;13.47;49.49;102862.13;5056245;28;45386;-82
2024/01/31 14:34:13;;;;;;;;;6.75;6.75;;;;;13.23;49.59;102852.84;5074782;28;45453;-80
2024/01/31 14:36:42;;;;;;;;;7.00;7.00;;;;;13.14;49.50;102854.84;5073232;28;45499;-78
2024/01/31 14:39:09;;;;;;;;;6.75;6.50;;;;;13.04;49.31;102839.78;5074508;28;45503;-78
2024/01/31 14:41:40;;;;;;;;;8.25;7.75;;;;;13.04;49.75;102839.78;5074811;28;45370;-78
2024/01/31 14:44:06;;;;;;;;;5.25;5.25;;;;;13.10;49.63;102836.97;5073964;28;45426;-80
2024/01/31 14:46:31;;;;;;;;;4.75;4.00;;;;;13.02;49.63;102829.03;5074697;28;45288;-80
2024/01/31 14:48:56;;;;;;;;;11.00;7.25;;;;;12.86;50.13;102812.34;5074423;28;45466;-80
2024/01/31 14:51:22;;;;;;;;;4.50;4.50;;;;;13.00;49.57;102832.72;5074192;28;45381;-79
2024/01/31 14:53:47;;;;;;;;;6.00;6.00;;;;;12.96;49.18;102794.19;5073827;28;60369;-80
2024/01/31 14:56:13;;;;;;;;;5.00;5.00;;;;;13.41;49.19;102794.94;5073465;28;45456;-79
2024/01/31 14:58:39;;;;;;;;;10.75;5.00;;;;;13.96;47.63;102812.34;5074776;28;45435;-78
2024/01/31 15:01:04;;;;;;;;;7.75;6.00;;;;;14.30;47.57;102809.59;5073483;28;45478;-80
2024/01/31 15:03:30;;;;;;;;;6.00;6.00;;;;;14.34;46.73;102760.03;5073918;28;45344;-79
2024/01/31 15:05:55;;;;;;;;;5.00;5.00;;;;;14.99;45.90;102803.94;5076770;27;46087;-78
2024/01/31 15:08:21;;;;;;;;;8.00;7.00;;;;;15.35;45.03;102801.88;5073958;28;45236;-78
2024/01/31 15:10:46;;;;;;;;;4.25;4.25;;;;;15.68;44.39;102788.19;5074564;28;45507;-78
2024/01/31 15:13:12;;;;;;;;;5.25;3.50;;;;;16.01;43.29;102781.56;5074727;28;45422;-79
2024/01/31 15:15:38;;;;;;;;;5.00;5.00;;;;;16.32;42.68;102772.34;5055627;28;48185;-78
2024/01/31 15:18:04;;;;;;;;;6.25;5.75;;;;;16.67;42.32;102795.41;5056339;28;45432;-77
2024/01/31 15:20:30;;;;;;;;;4.00;4.00;;;;;16.61;41.11;102793.78;5056030;28;45536;-76
2024/01/31 15:22:55;;;;;;;;;4.00;4.00;;;;;16.43;41.81;102792.63;5073977;28;45343;-76
2024/01/31 15:25:21;;;;;;;;;5.00;4.00;;;;;16.03;42.26;102733.72;5073783;28;45373;-78
2024/01/31 15:27:46;;;;;;;;;0.00;0.00;;;;;15.81;42.20;102727.31;5073293;28;45369;-77
2024/01/31 15:30:12;;;;;;;;;3.50;3.50;;;;;15.99;42.62;102791.56;5073827;28;45642;-78
2024/01/31 15:32:37;;;;;;;;;3.00;3.00;;;;;15.87;42.82;102776.66;5073724;28;45503;-77
2024/01/31 15:35:03;;;;;;;;;2.75;2.50;;;;;15.45;43.30;102722.25;5073239;28;54159;-77
2024/01/31 15:37:28;;;;;;;;;3.75;3.75;;;;;15.68;42.98;102763.84;5073735;28;45566;-77
2024/01/31 15:39:53;;;;;;;;;5.50;3.75;;;;;15.67;42.78;102794.50;5074011;28;45548;-76
2024/01/31 15:42:19;;;;;;;;;5.00;5.00;;;;;15.41;43.19;102800.78;5073883;28;45477;-80
2024/01/31 15:44:45;;;;;;;;;4.50;4.50;;;;;15.33;44.20;102792.03;5073364;28;46169;-79
2024/01/31 15:47:14;;;;;;;;;4.00;4.00;;;;;14.98;44.58;102780.56;5075331;28;45471;-79
2024/01/31 15:49:40;;;;;;;;;4.75;4.75;;;;;14.76;44.60;102783.06;5076868;28;45335;-77
2024/01/31 15:52:06;;;;;;;;;3.50;3.50;;;;;14.39;45.25;102752.69;5077404;28;45680;-77
2024/01/31 15:54:34;;;;;;;;;3.75;3.75;;;;;14.61;45.46;102805.13;5077088;28;45690;-78
2024/01/31 15:56:59;;;;;;;;;6.00;4.50;;;;;14.55;45.79;102797.19;5077254;28;45396;-78
2024/01/31 15:59:27;;;;;;;;;3.00;3.00;;;;;14.34;46.19;102795.09;5077132;28;45394;-77
2024/01/31 16:01:52;;;;;;;;;3.00;3.00;;;;;14.34;45.88;102805.91;5078207;28;45512;-79
2024/01/31 16:04:18;;;;;;;;;3.00;3.00;;;;;14.26;45.98;102806.13;5080088;27;45350;-77
2024/01/31 16:06:51;;;;;;;;;4.00;4.00;;;;;14.21;46.12;102812.56;5059037;28;46294;-79
2024/01/31 16:09:18;;;;;;;;;4.00;4.00;;;;;14.10;46.73;102810.19;5078129;28;45385;-78
2024/01/31 16:11:45;;;;;;;;;5.00;5.00;;;;;14.02;47.14;102817.59;5076983;28;45384;-79
2024/01/31 16:14:10;;;;;;;;;5.00;4.00;;;;;13.60;47.26;102782.78;5058371;28;46710;-79
2024/01/31 16:16:36;;;;;;;;;4.00;4.00;;;;;13.37;47.67;102774.38;5076804;28;45348;-81
2024/01/31 16:19:01;;;;;;;;;3.75;3.75;;;;;13.52;47.91;102800.06;5077050;28;50099;-79
2024/01/31 16:21:26;;;;;;;;;4.75;4.50;;;;;13.60;47.80;102831.28;5075125;27;45438;-77
2024/01/31 16:23:52;;;;;;;;;4.00;4.00;;;;;13.27;48.28;102780.03;5068312;28;46346;-76
2024/01/31 16:26:17;;;;;;;;;4.00;4.00;;;;;13.30;47.80;102801.50;5076657;28;45354;-79
2024/01/31 16:28:42;;;;;;;;;3.50;3.50;;;;;13.34;48.31;102840.94;5057827;28;50902;-77
2024/01/31 16:31:08;;;;;;;;;4.00;4.00;;;;;13.07;48.59;102813.69;5073384;28;45291;-82
2024/01/31 16:33:34;;;;;;;;;4.50;4.50;;;;;13.23;48.59;102854.63;5075093;28;45540;-76
2024/01/31 16:35:59;;;;;;;;;3.00;1.75;;;;;13.06;49.00;102838.84;5072707;27;45568;-79
2024/01/31 16:38:25;;;;;;;;;3.50;3.50;;;;;13.06;49.12;102835.25;5075206;27;45409;-77
2024/01/31 16:40:50;;;;;;;;;4.75;4.75;;;;;13.16;49.12;102861.09;5073971;28;45451;-75